createdAt,value
2019-05-17T00:02:30.940Z,86.90
2019-05-17T00:05:02.298Z,86.70
2019-05-17T00:07:36.869Z,87.00
2019-05-17T00:10:17.289Z,86.70
2019-05-17T00:12:51.685Z,87.00
2019-05-17T00:15:27.444Z,86.60
2019-05-17T00:18:02.195Z,86.60
2019-05-17T00:20:37.633Z,86.60
2019-05-17T00:23:14.684Z,87.00
2019-05-17T00:25:47.174Z,87.30
2019-05-17T00:28:20.309Z,87.00
2019-05-17T00:30:56.982Z,87.20
2019-05-17T00:33:29.732Z,87.20
2019-05-17T00:36:04.068Z,88.10
2019-05-17T00:38:47.910Z,88.20
2019-05-17T00:41:12.607Z,88.10
2019-05-17T00:43:46.711Z,88.40
2019-05-17T00:46:21.650Z,88.70
2019-05-17T00:48:57.158Z,89.00
2019-05-17T00:51:28.533Z,88.80
2019-05-17T00:56:59.501Z,88.80
2019-05-17T00:59:33.515Z,90.00
2019-05-17T01:02:07.030Z,90.00
2019-05-17T01:04:38.906Z,89.80
2019-05-17T01:07:12.555Z,88.10
2019-05-17T01:09:47.213Z,87.50
2019-05-17T01:12:19.960Z,85.80
2019-05-17T01:14:54.332Z,84.80
2019-05-17T01:17:27.124Z,84.00
2019-05-17T01:19:58.519Z,84.60
2019-05-17T01:22:31.326Z,85.00
2019-05-17T01:25:03.204Z,86.20
2019-05-17T01:27:35.024Z,86.90
2019-05-17T01:30:12.128Z,87.80
2019-05-17T01:32:46.421Z,88.20
2019-05-17T01:35:19.725Z,89.80
2019-05-17T01:37:51.341Z,90.10
2019-05-17T01:40:23.701Z,90.10
2019-05-17T01:42:58.147Z,90.10
2019-05-17T01:45:32.593Z,90.30
2019-05-17T01:48:10.450Z,90.00
2019-05-17T01:50:42.979Z,90.10
2019-05-17T01:53:16.591Z,90.30
2019-05-17T01:55:48.922Z,90.30
2019-05-17T01:58:22.241Z,90.50
2019-05-17T02:00:57.410Z,90.40
2019-05-17T02:03:28.942Z,90.60
2019-05-17T02:06:02.800Z,90.70
2019-05-17T02:08:37.220Z,90.60
2019-05-17T02:14:07.101Z,90.50
2019-05-17T02:16:39.036Z,90.50
2019-05-17T02:19:10.550Z,90.50
2019-05-17T02:21:42.704Z,90.50
2019-05-17T02:24:16.777Z,90.60
2019-05-17T02:26:47.396Z,90.40
2019-05-17T02:29:18.982Z,90.70
2019-05-17T02:31:52.779Z,90.70
2019-05-17T02:34:26.263Z,90.70
2019-05-17T02:36:59.077Z,91.10
2019-05-17T02:39:32.917Z,91.30
2019-05-17T02:42:06.553Z,91.30
2019-05-17T02:44:43.720Z,90.50
2019-05-17T02:47:15.881Z,89.10
2019-05-17T02:49:49.291Z,87.30
2019-05-17T02:52:23.180Z,87.40
2019-05-17T02:54:55.012Z,87.40
2019-05-17T02:57:26.404Z,88.10
2019-05-17T02:59:58.893Z,89.10
2019-05-17T03:02:33.837Z,90.00
2019-05-17T03:05:07.075Z,89.50
2019-05-17T03:07:43.844Z,90.20
2019-05-17T03:10:24.179Z,90.00
2019-05-17T03:12:48.294Z,90.20
2019-05-17T03:15:23.437Z,90.10
2019-05-17T03:17:55.503Z,90.60
2019-05-17T03:20:26.949Z,91.00
2019-05-17T03:22:59.181Z,90.10
2019-05-17T03:25:33.517Z,90.50
2019-05-17T03:28:06.528Z,90.60
2019-05-17T03:30:46.040Z,90.70
2019-05-17T03:33:16.701Z,91.00
2019-05-17T03:35:49.132Z,90.90
2019-05-17T03:38:22.832Z,90.90
2019-05-17T03:41:09.390Z,91.00
2019-05-17T03:43:28.640Z,90.60
2019-05-17T03:46:02.836Z,91.10
2019-05-17T03:48:34.226Z,91.30
2019-05-17T03:51:06.918Z,91.40
2019-05-17T03:53:38.359Z,92.90
2019-05-17T03:56:13.166Z,92.60
2019-05-17T03:58:43.678Z,92.20
2019-05-17T04:01:16.543Z,91.90
2019-05-17T04:03:52.725Z,91.70
2019-05-17T04:06:23.808Z,91.50
2019-05-17T04:08:55.677Z,89.70
2019-05-17T04:11:31.808Z,88.00
2019-05-17T04:14:02.956Z,86.60
2019-05-17T04:16:35.379Z,86.60
2019-05-17T04:19:07.639Z,88.00
2019-05-17T04:21:42.715Z,88.90
2019-05-17T04:24:14.192Z,88.90
2019-05-17T04:26:47.994Z,89.10
2019-05-17T04:29:22.907Z,89.10
2019-05-17T04:31:55.614Z,88.40
2019-05-17T04:34:27.368Z,89.20
2019-05-17T04:36:59.664Z,90.10
2019-05-17T04:39:33.350Z,88.60
2019-05-17T04:42:05.106Z,86.60
2019-05-17T04:44:36.482Z,87.90
2019-05-17T04:47:08.584Z,88.60
2019-05-17T04:49:44.022Z,89.30
2019-05-17T04:52:14.590Z,87.80
2019-05-17T04:54:45.875Z,87.80
2019-05-17T04:57:17.573Z,86.20
2019-05-17T04:59:52.169Z,84.80
2019-05-17T05:02:23.742Z,83.10
2019-05-17T05:04:55.275Z,80.40
2019-05-17T05:07:29.584Z,78.30
2019-05-17T05:10:02.991Z,78.10
2019-05-17T05:12:35.693Z,79.10
2019-05-17T05:15:13.076Z,77.50
2019-05-17T05:17:46.117Z,76.60
2019-05-17T05:20:21.979Z,79.10
2019-05-17T05:22:52.688Z,78.20
2019-05-17T05:25:24.153Z,75.40
2019-05-17T05:27:56.912Z,70.80
2019-05-17T05:30:28.356Z,66.00
2019-05-17T05:33:01.894Z,67.30
2019-05-17T05:35:32.906Z,69.30
2019-05-17T05:38:04.718Z,71.20
2019-05-17T05:40:37.559Z,69.40
2019-05-17T05:43:12.081Z,70.70
2019-05-17T05:45:43.766Z,71.70
2019-05-17T05:48:15.159Z,73.40
2019-05-17T05:50:46.399Z,74.40
2019-05-17T05:53:17.807Z,74.40
2019-05-17T05:55:51.787Z,76.40
2019-05-17T05:58:24.252Z,75.10
2019-05-17T06:00:57.569Z,71.10
2019-05-17T06:03:32.049Z,73.10
2019-05-17T06:06:04.723Z,71.40
2019-05-17T06:08:36.576Z,69.00
2019-05-17T06:11:09.060Z,64.70
2019-05-17T06:13:42.044Z,65.90
2019-05-17T06:16:13.435Z,64.80
2019-05-17T06:18:44.614Z,64.60
2019-05-17T06:21:15.981Z,62.90
2019-05-17T06:23:48.756Z,64.20
2019-05-17T06:26:23.470Z,64.00
2019-05-17T06:28:53.106Z,65.00
2019-05-17T06:31:24.471Z,64.40
2019-05-17T06:33:56.415Z,64.10
2019-05-17T06:36:29.045Z,63.50
2019-05-17T06:39:02.261Z,64.90
2019-05-17T06:41:33.604Z,63.30
2019-05-17T06:44:05.287Z,64.30
2019-05-17T06:46:41.620Z,64.20
2019-05-17T06:49:11.896Z,61.60
2019-05-17T06:51:43.651Z,60.00
2019-05-17T06:54:17.335Z,60.30
2019-05-17T06:56:48.883Z,62.60
2019-05-17T06:59:21.667Z,60.20
2019-05-17T07:01:53.251Z,57.60
2019-05-17T07:04:24.435Z,57.70
2019-05-17T07:07:20.831Z,57.80
2019-05-17T07:10:00.760Z,60.60
2019-05-17T07:12:33.063Z,60.20
2019-05-17T07:15:16.766Z,57.00
2019-05-17T07:17:50.366Z,56.10
2019-05-17T07:20:21.525Z,58.80
2019-05-17T07:22:52.927Z,59.10
2019-05-17T07:25:24.323Z,58.20
2019-05-17T07:27:55.582Z,59.50
2019-05-17T07:30:27.114Z,61.60
2019-05-17T07:33:00.447Z,59.20
2019-05-17T07:35:31.356Z,59.00
2019-05-17T07:38:10.774Z,59.90
2019-05-17T07:40:42.428Z,62.50
2019-05-17T07:43:14.982Z,58.00
2019-05-17T07:45:46.568Z,59.00
2019-05-17T07:48:20.047Z,60.40
2019-05-17T07:50:52.890Z,59.60
2019-05-17T07:53:24.116Z,58.10
2019-05-17T07:55:55.665Z,58.30
2019-05-17T07:58:29.704Z,57.70
2019-05-17T08:01:02.155Z,59.20
2019-05-17T08:03:34.734Z,56.80
2019-05-17T08:06:10.337Z,55.10
2019-05-17T08:08:41.846Z,56.00
2019-05-17T08:11:14.576Z,56.70
2019-05-17T08:13:46.710Z,56.50
2019-05-17T08:16:19.698Z,56.50
2019-05-17T08:18:53.191Z,55.10
2019-05-17T08:21:25.433Z,55.50
2019-05-17T08:24:03.363Z,55.70
2019-05-17T08:26:35.213Z,54.00
2019-05-17T08:29:06.663Z,54.30
2019-05-17T08:31:40.477Z,55.10
2019-05-17T08:34:13.175Z,53.20
2019-05-17T08:36:45.010Z,54.50
2019-05-17T08:39:16.610Z,54.00
2019-05-17T08:41:49.728Z,53.60
2019-05-17T08:44:22.532Z,54.30
2019-05-17T08:46:54.096Z,53.60
2019-05-17T08:49:29.562Z,54.60
2019-05-17T08:52:04.430Z,53.50
2019-05-17T08:54:36.472Z,55.30
2019-05-17T08:57:09.574Z,54.20
2019-05-17T08:59:41.530Z,50.70
2019-05-17T09:02:13.480Z,52.90
2019-05-17T09:04:45.296Z,52.80
2019-05-17T09:07:20.430Z,49.50
2019-05-17T09:09:53.659Z,50.60
2019-05-17T09:12:25.525Z,49.90
2019-05-17T09:15:00.251Z,50.50
2019-05-17T09:17:31.474Z,47.10
2019-05-17T09:20:05.340Z,48.30
2019-05-17T09:22:36.654Z,48.40
2019-05-17T09:25:13.537Z,49.60
2019-05-17T09:27:43.656Z,48.70
2019-05-17T09:30:20.343Z,47.50
2019-05-17T09:32:55.881Z,48.70
2019-05-17T09:35:29.885Z,48.90
2019-05-17T09:38:02.192Z,48.50
2019-05-17T09:40:35.242Z,49.80
2019-05-17T09:43:10.320Z,51.00
2019-05-17T09:45:42.338Z,49.40
2019-05-17T09:48:19.467Z,49.60
2019-05-17T09:50:54.295Z,50.50
2019-05-17T09:53:26.646Z,49.00
2019-05-17T09:56:00.574Z,47.20
2019-05-17T09:58:33.940Z,48.80
2019-05-17T10:01:09.317Z,49.10
2019-05-17T10:03:42.066Z,50.30
2019-05-17T10:06:19.924Z,48.00
2019-05-17T10:08:51.815Z,47.70
2019-05-17T10:11:23.931Z,47.70
2019-05-17T10:13:58.352Z,48.60
2019-05-17T10:16:30.811Z,51.40
2019-05-17T10:19:03.502Z,48.10
2019-05-17T10:21:35.146Z,48.00
2019-05-17T10:24:09.582Z,47.20
2019-05-17T10:26:41.503Z,47.90
2019-05-17T10:29:13.092Z,47.40
2019-05-17T10:31:46.301Z,49.30
2019-05-17T10:34:20.216Z,47.10
2019-05-17T10:36:52.891Z,47.30
2019-05-17T10:39:25.648Z,47.10
2019-05-17T10:41:57.768Z,47.80
2019-05-17T10:44:43.585Z,47.60
2019-05-17T10:47:24.053Z,49.40
2019-05-17T10:49:55.993Z,49.10
2019-05-17T10:52:29.906Z,51.40
2019-05-17T10:55:02.209Z,49.10
2019-05-17T10:57:35.967Z,48.60
2019-05-17T11:00:16.366Z,50.20
2019-05-17T11:02:50.350Z,53.00
2019-05-17T11:05:21.978Z,49.80
2019-05-17T11:07:54.493Z,50.60
2019-05-17T11:10:27.737Z,52.10
2019-05-17T11:13:10.667Z,50.10
2019-05-17T11:15:45.518Z,50.80
2019-05-17T11:18:19.929Z,49.20
2019-05-17T11:20:52.808Z,50.70
2019-05-17T11:23:24.440Z,48.20
2019-05-17T11:25:57.381Z,47.90
2019-05-17T11:28:29.021Z,45.80
2019-05-17T11:31:02.036Z,47.10
2019-05-17T11:33:34.225Z,47.90
2019-05-17T11:36:07.647Z,49.10
2019-05-17T11:38:41.052Z,48.60
2019-05-17T11:41:21.030Z,49.30
2019-05-17T11:43:48.217Z,49.30
2019-05-17T11:46:35.326Z,49.80
2019-05-17T11:48:57.395Z,48.00
2019-05-17T11:51:29.559Z,48.50
2019-05-17T11:54:02.636Z,47.30
2019-05-17T11:56:35.486Z,48.20
2019-05-17T11:59:08.879Z,47.40
2019-05-17T12:01:41.872Z,48.80
2019-05-17T12:04:13.563Z,48.50
2019-05-17T12:06:46.022Z,49.40
2019-05-17T12:09:36.422Z,49.60
2019-05-17T12:11:57.010Z,49.10
2019-05-17T12:14:29.063Z,48.10
2019-05-17T12:17:01.231Z,49.10
2019-05-17T12:19:37.037Z,49.70
2019-05-17T12:22:07.513Z,51.00
2019-05-17T12:24:53.010Z,50.60
2019-05-17T12:27:26.202Z,50.50
2019-05-17T12:35:45.122Z,50.20
2019-05-17T12:44:06.397Z,50.70
2019-05-17T12:46:38.375Z,49.70
2019-05-17T12:49:11.025Z,49.10
2019-05-17T12:51:42.917Z,50.20
2019-05-17T12:54:17.367Z,49.40
2019-05-17T12:56:48.948Z,51.70
2019-05-17T12:59:21.484Z,48.50
2019-05-17T13:01:54.816Z,49.30
2019-05-17T13:04:28.100Z,49.30
2019-05-17T13:07:20.528Z,50.70
2019-05-17T13:09:55.148Z,49.20
2019-05-17T13:12:27.383Z,49.90
2019-05-17T13:15:00.787Z,50.00
2019-05-17T13:17:36.851Z,51.10
2019-05-17T13:20:13.758Z,50.60
2019-05-17T13:22:46.502Z,50.40
2019-05-17T13:25:19.436Z,49.30
2019-05-17T13:27:52.322Z,48.30
2019-05-17T13:30:33.223Z,50.30
2019-05-17T13:33:29.167Z,50.30
2019-05-17T13:36:00.845Z,50.80
2019-05-17T13:39:08.077Z,50.70
2019-05-17T13:45:03.315Z,50.40
2019-05-17T13:47:37.214Z,49.90
2019-05-17T13:50:10.734Z,51.10
2019-05-17T13:52:44.061Z,53.40
2019-05-17T13:55:17.247Z,52.50
2019-05-17T13:57:52.218Z,51.90
2019-05-17T14:03:22.315Z,52.60
2019-05-17T14:05:57.190Z,52.70
2019-05-17T14:08:32.542Z,53.20
2019-05-17T14:11:10.288Z,53.00
2019-05-17T14:13:47.265Z,53.60
2019-05-17T14:19:10.019Z,54.20
2019-05-17T14:21:43.527Z,54.90
2019-05-17T14:24:17.348Z,55.10
2019-05-17T14:26:56.448Z,54.80
2019-05-17T14:29:37.254Z,55.40
2019-05-17T14:32:22.968Z,54.90
2019-05-17T14:35:03.725Z,54.90
2019-05-17T14:37:39.412Z,54.50
2019-05-17T14:40:12.214Z,55.00
2019-05-17T14:42:47.545Z,55.30
2019-05-17T14:50:57.804Z,54.90
2019-05-17T14:53:32.065Z,54.70
2019-05-17T14:56:04.148Z,55.60
2019-05-17T14:58:36.719Z,54.90
2019-05-17T15:03:57.163Z,56.10
2019-05-17T15:06:29.860Z,56.10
2019-05-17T15:09:11.671Z,56.10
2019-05-17T15:11:43.562Z,54.90
2019-05-17T15:14:36.452Z,55.30
2019-05-17T15:17:09.189Z,55.50
2019-05-17T15:19:41.522Z,54.70
2019-05-17T15:22:13.929Z,55.20
2019-05-17T15:24:51.258Z,54.50
2019-05-17T15:27:25.247Z,54.90
2019-05-17T15:29:59.575Z,54.80
2019-05-17T15:32:33.818Z,55.60
2019-05-17T15:35:11.210Z,55.00
2019-05-17T15:37:47.108Z,55.10
2019-05-17T15:40:20.998Z,55.60
2019-05-17T15:42:54.964Z,56.10
2019-05-17T15:45:28.607Z,55.50
2019-05-17T15:48:03.403Z,53.60
2019-05-17T15:50:37.401Z,53.80
2019-05-17T15:53:10.355Z,53.30
2019-05-17T15:55:45.769Z,54.00
2019-05-17T15:58:19.083Z,53.40
2019-05-17T16:03:48.075Z,54.00
2019-05-17T16:06:22.549Z,52.70
2019-05-17T16:08:55.752Z,53.10
2019-05-17T16:11:31.620Z,52.70
2019-05-17T16:14:04.800Z,53.00
2019-05-17T16:17:04.452Z,53.00
2019-05-17T16:19:54.648Z,53.50
2019-05-17T16:22:33.430Z,54.20
2019-05-17T16:25:26.872Z,52.40
2019-05-17T16:28:00.657Z,52.40
2019-05-17T16:30:34.019Z,52.50
2019-05-17T16:33:06.882Z,52.70
2019-05-17T16:39:09.139Z,52.50
2019-05-17T16:41:55.401Z,52.90
2019-05-17T16:44:51.747Z,52.90
2019-05-17T16:47:32.547Z,52.30
2019-05-17T16:50:18.459Z,52.30
2019-05-17T16:53:19.749Z,52.00
2019-05-17T16:55:58.164Z,52.80
2019-05-17T16:58:53.224Z,52.50
2019-05-17T17:01:27.955Z,52.50
2019-05-17T17:04:02.846Z,53.00
2019-05-17T17:06:37.337Z,52.80
2019-05-17T17:09:13.534Z,53.40
2019-05-17T17:11:47.422Z,53.50
2019-05-17T17:14:21.454Z,53.80
2019-05-17T17:16:53.544Z,54.20
2019-05-17T17:19:37.806Z,54.50
2019-05-17T17:22:20.252Z,53.60
2019-05-17T17:24:56.493Z,53.60
2019-05-17T17:27:49.482Z,54.10
2019-05-17T17:30:25.750Z,54.10
2019-05-17T17:32:58.162Z,54.40
2019-05-17T17:35:30.606Z,54.40
2019-05-17T17:38:01.037Z,54.80
2019-05-17T17:40:39.027Z,54.60
2019-05-17T17:43:15.187Z,54.20
2019-05-17T17:45:50.541Z,54.40
2019-05-17T17:48:45.902Z,54.50
2019-05-17T17:51:24.306Z,54.50
2019-05-17T17:53:56.542Z,55.40
2019-05-17T17:59:28.200Z,55.50
2019-05-17T18:02:03.336Z,55.80
2019-05-17T18:04:37.863Z,55.70
2019-05-17T18:07:16.191Z,56.00
2019-05-17T18:10:09.726Z,56.10
2019-05-17T18:15:50.229Z,56.60
2019-05-17T18:18:24.934Z,56.90
2019-05-17T18:21:00.192Z,57.00
2019-05-17T18:23:52.891Z,57.00
2019-05-17T18:26:26.887Z,57.20
2019-05-17T18:28:59.970Z,57.40
2019-05-17T18:31:53.794Z,58.10
2019-05-17T18:34:26.532Z,58.40
2019-05-17T18:37:01.989Z,58.70
2019-05-17T18:39:35.317Z,58.50
2019-05-17T18:42:09.962Z,59.00
2019-05-17T18:44:42.897Z,58.90
2019-05-17T18:47:38.524Z,59.30
2019-05-17T18:50:18.097Z,59.60
2019-05-17T18:52:51.006Z,60.10
2019-05-17T18:55:23.243Z,60.20
2019-05-17T18:57:56.227Z,60.00
2019-05-17T19:00:30.530Z,60.10
2019-05-17T19:03:03.328Z,60.10
2019-05-17T19:05:36.052Z,60.30
2019-05-17T19:08:09.090Z,61.00
2019-05-17T19:10:41.682Z,61.30
2019-05-17T19:13:14.396Z,61.70
2019-05-17T19:15:47.365Z,62.00
2019-05-17T19:18:40.565Z,62.00
2019-05-17T19:21:18.166Z,62.70
2019-05-17T19:24:11.057Z,62.90
2019-05-17T19:26:47.335Z,63.40
2019-05-17T19:29:20.767Z,64.40
2019-05-17T19:31:56.070Z,64.90
2019-05-17T19:34:30.070Z,65.20
2019-05-17T19:37:05.308Z,65.00
2019-05-17T19:39:39.525Z,64.90
2019-05-17T19:42:13.090Z,64.60
2019-05-17T19:44:58.686Z,64.50
2019-05-17T19:47:20.930Z,64.50
2019-05-17T19:49:56.360Z,64.10
2019-05-17T19:52:29.041Z,64.20
2019-05-17T19:55:02.515Z,64.30
2019-05-17T19:57:36.831Z,64.50
2019-05-17T20:00:15.528Z,64.20
2019-05-17T20:02:53.192Z,64.50
2019-05-17T20:05:25.693Z,64.70
2019-05-17T20:07:59.093Z,65.30
2019-05-17T20:10:31.897Z,65.80
2019-05-17T20:13:05.634Z,66.30
2019-05-17T20:15:39.156Z,66.50
2019-05-17T20:18:14.029Z,66.80
2019-05-17T20:20:48.295Z,67.40
2019-05-17T20:23:22.522Z,67.20
2019-05-17T20:25:56.235Z,67.50
2019-05-17T20:28:31.652Z,68.10
2019-05-17T20:31:04.662Z,68.30
2019-05-17T20:33:37.260Z,68.50
2019-05-17T20:36:11.861Z,68.70
2019-05-17T20:41:46.075Z,69.00
2019-05-17T20:44:18.990Z,68.90
2019-05-17T20:46:51.595Z,68.40
2019-05-17T20:49:25.410Z,68.20
2019-05-17T20:51:58.660Z,68.30
2019-05-17T20:54:33.695Z,68.50
2019-05-17T20:57:07.515Z,69.80
2019-05-17T20:59:39.710Z,69.70
2019-05-17T21:02:14.502Z,70.40
2019-05-17T21:04:49.379Z,70.80
2019-05-17T21:07:21.561Z,72.10
2019-05-17T21:09:53.779Z,72.80
2019-05-17T21:12:27.705Z,73.30
2019-05-17T21:14:59.784Z,74.00
2019-05-17T21:17:33.488Z,75.40
2019-05-17T21:20:07.682Z,75.40
2019-05-17T21:22:40.358Z,75.80
2019-05-17T21:25:14.578Z,75.40
2019-05-17T21:27:48.265Z,73.60
2019-05-17T21:30:20.965Z,73.40
2019-05-17T21:32:54.673Z,73.30
2019-05-17T21:35:30.237Z,72.90
2019-05-17T21:38:23.974Z,72.40
2019-05-17T21:40:59.661Z,70.70
2019-05-17T21:43:34.457Z,70.40
2019-05-17T21:46:10.790Z,69.90
2019-05-17T21:48:44.783Z,69.60
2019-05-17T21:51:17.598Z,69.80
2019-05-17T21:53:50.257Z,70.00
2019-05-17T21:56:23.000Z,69.30
2019-05-17T21:58:55.866Z,69.20
2019-05-17T22:01:31.927Z,69.20
2019-05-17T22:04:05.057Z,69.00
2019-05-17T22:06:40.042Z,69.20
2019-05-17T22:09:13.658Z,69.10
2019-05-17T22:12:11.141Z,69.00
2019-05-17T22:14:46.776Z,69.90
2019-05-17T22:17:19.378Z,69.20
2019-05-17T22:19:52.095Z,69.50
2019-05-17T22:22:25.259Z,69.60
2019-05-17T22:24:59.414Z,69.70
2019-05-17T22:27:32.605Z,69.80
2019-05-17T22:30:09.725Z,69.90
2019-05-17T22:32:42.519Z,70.00
2019-05-17T22:35:17.914Z,69.90
2019-05-17T22:37:49.915Z,70.10
2019-05-17T22:40:22.614Z,70.00
2019-05-17T22:42:55.169Z,70.10
2019-05-17T22:45:28.275Z,70.40
2019-05-17T22:52:19.726Z,70.70
2019-05-17T22:54:52.776Z,70.80
2019-05-17T22:57:25.816Z,71.20
2019-05-17T22:59:58.589Z,70.90
2019-05-17T23:02:31.667Z,71.00
2019-05-17T23:05:04.647Z,71.40
2019-05-17T23:07:37.947Z,72.00
2019-05-17T23:10:11.180Z,72.20
2019-05-17T23:12:43.567Z,72.40
2019-05-17T23:15:18.512Z,72.70
2019-05-17T23:17:51.327Z,72.50
2019-05-17T23:20:24.366Z,72.80
2019-05-17T23:22:56.913Z,72.90
2019-05-17T23:25:32.755Z,72.90
2019-05-17T23:28:07.587Z,73.10
2019-05-17T23:30:41.559Z,73.00
2019-05-17T23:33:15.184Z,73.40
2019-05-17T23:35:49.055Z,73.40
2019-05-17T23:38:29.194Z,73.90
2019-05-17T23:41:02.077Z,74.40
2019-05-17T23:43:35.009Z,74.50
2019-05-17T23:46:08.309Z,74.90
2019-05-17T23:48:42.698Z,75.50
2019-05-17T23:51:25.066Z,76.20
2019-05-17T23:53:58.080Z,77.50
2019-05-17T23:56:32.767Z,78.40
2019-05-17T23:59:10.482Z,79.10
